Rochester, NY (14626)

11:01 PM EDT on October 18, 2019 (GMT -0400)
Bright Autumn | | Change Station
Active Advisory: Frost Advisory

Elev 292 ft 43.22 °N, 77.71 °W | Updated 12 seconds ago

Partly Cloudy
Partly Cloudy
37.8 °F
Feels Like 38 °F
N
0
Wind Variable Wind from South
Gusts 0.0 mph

Today
High -- | Low -- °F
--% Chance of Precip.
Yesterday
High -- | Low -- °F
Precip. -- in
Pressure 30.07 in
Visibility 10.0 miles
Clouds Scattered Clouds 25000 ft
Windchill 38 °F
Dew Point 36 °F
Humidity 94%
Rainfall 0.02 in
Snow Depth Not available.
7:27 AM 6:23 PM
Waning Gibbous, 75% visible
METAR KROC 190254Z 24004KT 10SM SCT250 03/02 A3005 RMK AO2 SLP183 T00330017 50005
Pressure 30.07 in
Visibility 10.0 miles
Clouds Scattered Clouds 25000 ft
Windchill 38 °F
Dew Point 36 °F
Humidity 94%
Rainfall 0.02 in
Snow Depth Not available.
7:27 AM 6:23 PM
Waning Gibbous, 75% visible
METAR KROC 190254Z 24004KT 10SM SCT250 03/02 A3005 RMK AO2 SLP183 T00330017 50005

Get Your Daily Forecast Email!

Thanks for signing up!

Be on the lookout for a verification email in your inbox.

You'll start receiving severe weather alerts in your inbox..

×

10-Day Weather Forecast

Almanac

Astronomy

Oct. 18, 2019 Rise Set
Actual Time
Civil Twilight
Nautical Twilight
Astronomical Twilight
Moon
Length of Visible Light
Length of Day
Tomorrow will be .
, % of the Moon is Illuminated

Today's Extremes

State Highs State Lows

Community

WunderPhotos

Category 6

Welcome to Category 6. This is the collective home for Weather Underground's featured writeups by Dr. Jeff Masters (right), Bob Henson (left), Chris Burt, and other regular contributors.

Nearby

Air Quality

  Air Quality AQ Index Pollutant
Not available.

Snow Depth

Station Depth Elevation

Earthquake Activity

City Distance Mag. Time & Date
Minimum magnitude displayed is 2.5.

Coastal Water Temperatures

Place Temperature

Stations

Nearby Weather Stations

Station Location Temp. Windchill Dew Point Humidity Wind Precip. Elev Updated Type
                   

Watches & Warnings

Frost Advisory
Issued: 10:15 PM EDT Oct. 18, 2019 – National Weather Service

... Frost advisory remains in effect until 9 am EDT Saturday...

* what... temperatures in the lower to mid 30s are expected to
allow for frost formation.

* Where... Niagara, Orleans, Monroe, Wayne, northern Cayuga,
Oswego, Erie, Genesee, Livingston, Ontario, and Chautauqua
counties.

* When... from midnight tonight to 9 am EDT Saturday.

* Impacts... frost could kill sensitive outdoor vegetation if
left uncovered.

Precautionary/preparedness actions...

Take steps now to protect tender plants from the cold.